createdAt,value
2017-06-17T00:01:34.783Z,92.90
2017-06-17T00:04:02.304Z,92.90
2017-06-17T00:06:29.827Z,93.00
2017-06-17T00:08:57.369Z,93.00
2017-06-17T00:11:24.882Z,93.10
2017-06-17T00:13:52.741Z,93.10
2017-06-17T00:16:20.375Z,93.10
2017-06-17T00:18:47.923Z,93.20
2017-06-17T00:21:15.461Z,93.10
2017-06-17T00:23:43.743Z,93.20
2017-06-17T00:26:11.285Z,93.20
2017-06-17T00:28:39.602Z,93.30
2017-06-17T00:31:07.370Z,93.60
2017-06-17T00:33:34.893Z,93.30
2017-06-17T00:36:03.227Z,93.40
2017-06-17T00:38:30.730Z,93.40
2017-06-17T00:40:58.238Z,93.40
2017-06-17T00:43:25.799Z,93.40
2017-06-17T00:45:53.315Z,93.30
2017-06-17T00:48:20.859Z,93.50
2017-06-17T00:50:49.134Z,93.60
2017-06-17T00:53:17.680Z,93.50
2017-06-17T00:55:45.200Z,93.50
2017-06-17T00:58:12.728Z,93.70
2017-06-17T01:00:40.501Z,93.70
2017-06-17T01:03:08.774Z,93.70
2017-06-17T01:05:37.088Z,93.90
2017-06-17T01:08:04.610Z,93.60
2017-06-17T01:10:32.155Z,93.70
2017-06-17T01:12:59.679Z,93.80
2017-06-17T01:15:27.214Z,93.90
2017-06-17T01:17:55.018Z,93.70
2017-06-17T01:20:22.563Z,93.80
2017-06-17T01:22:50.077Z,94.30
2017-06-17T01:25:18.385Z,94.40
2017-06-17T01:27:45.908Z,94.30
2017-06-17T01:30:13.446Z,93.90
2017-06-17T01:32:40.960Z,93.90
2017-06-17T01:35:08.511Z,94.00
2017-06-17T01:37:36.020Z,94.10
2017-06-17T01:40:03.595Z,93.90
2017-06-17T01:42:31.107Z,93.80
2017-06-17T01:44:58.611Z,93.90
2017-06-17T01:47:26.155Z,93.80
2017-06-17T01:49:53.667Z,93.70
2017-06-17T01:52:21.224Z,93.60
2017-06-17T01:54:49.037Z,93.70
2017-06-17T01:57:16.572Z,93.50
2017-06-17T01:59:44.102Z,93.40
2017-06-17T02:02:12.376Z,93.40
2017-06-17T02:04:40.701Z,93.80
2017-06-17T02:07:08.220Z,93.80
2017-06-17T02:09:35.735Z,93.40
2017-06-17T02:12:03.323Z,93.30
2017-06-17T02:14:31.604Z,93.80
2017-06-17T02:16:59.906Z,93.50
2017-06-17T02:19:27.430Z,93.40
2017-06-17T02:21:54.979Z,93.60
2017-06-17T02:24:22.487Z,93.50
2017-06-17T02:26:50.069Z,93.60
2017-06-17T02:29:17.847Z,93.50
2017-06-17T02:31:45.391Z,93.60
2017-06-17T02:34:13.270Z,94.00
2017-06-17T02:36:40.788Z,93.70
2017-06-17T02:39:08.300Z,93.70
2017-06-17T02:41:35.834Z,93.70
2017-06-17T02:44:03.387Z,93.50
2017-06-17T02:46:30.953Z,93.60
2017-06-17T02:48:58.479Z,93.40
2017-06-17T02:51:26.019Z,93.40
2017-06-17T02:53:53.539Z,93.50
2017-06-17T02:56:21.070Z,92.70
2017-06-17T02:58:48.589Z,92.90
2017-06-17T03:01:16.121Z,93.40
2017-06-17T03:03:43.630Z,92.90
2017-06-17T03:06:11.947Z,92.90
2017-06-17T03:08:39.464Z,92.90
2017-06-17T03:11:07.738Z,92.70
2017-06-17T03:13:35.287Z,92.70
2017-06-17T03:16:02.900Z,92.70
2017-06-17T03:18:30.872Z,92.80
2017-06-17T03:20:59.678Z,92.60
2017-06-17T03:23:27.214Z,92.60
2017-06-17T03:25:54.739Z,93.00
2017-06-17T03:28:23.040Z,92.70
2017-06-17T03:30:50.578Z,92.60
2017-06-17T03:33:18.889Z,92.50
2017-06-17T03:35:46.450Z,92.50
2017-06-17T03:38:13.954Z,92.60
2017-06-17T03:40:41.719Z,92.70
2017-06-17T03:43:09.279Z,92.70
2017-06-17T03:45:36.875Z,92.80
2017-06-17T03:48:04.395Z,92.70
2017-06-17T03:50:31.930Z,92.80
2017-06-17T03:52:59.445Z,92.60
2017-06-17T03:55:26.974Z,92.30
2017-06-17T03:57:54.536Z,92.70
2017-06-17T04:00:22.045Z,92.60
2017-06-17T04:02:49.600Z,92.70
2017-06-17T04:05:17.387Z,92.60
2017-06-17T04:07:44.924Z,92.40
2017-06-17T04:10:12.430Z,92.70
2017-06-17T04:12:39.992Z,92.60
2017-06-17T04:15:07.503Z,92.80
2017-06-17T04:17:35.292Z,92.60
2017-06-17T04:20:02.853Z,92.20
2017-06-17T04:22:30.371Z,92.20
2017-06-17T04:24:57.912Z,92.20
2017-06-17T04:27:25.427Z,92.40
2017-06-17T04:29:53.008Z,92.40
2017-06-17T04:32:20.855Z,91.90
2017-06-17T04:34:48.372Z,92.00
2017-06-17T04:37:15.912Z,92.00
2017-06-17T04:39:43.443Z,92.10
2017-06-17T04:42:10.998Z,91.70
2017-06-17T04:44:38.866Z,91.70
2017-06-17T04:47:06.372Z,91.90
2017-06-17T04:49:34.684Z,91.60
2017-06-17T04:52:02.203Z,91.60
2017-06-17T04:54:29.772Z,91.90
2017-06-17T04:56:57.283Z,91.80
2017-06-17T04:59:25.145Z,91.50
2017-06-17T05:01:52.661Z,91.70
2017-06-17T05:04:20.188Z,91.30
2017-06-17T05:06:47.740Z,91.20
2017-06-17T05:09:15.255Z,91.20
2017-06-17T05:11:42.815Z,91.30
2017-06-17T05:14:10.341Z,91.20
2017-06-17T05:16:38.657Z,91.50
2017-06-17T05:19:06.176Z,91.40
2017-06-17T05:21:34.483Z,91.40
2017-06-17T05:24:01.996Z,91.40
2017-06-17T05:26:29.534Z,91.40
2017-06-17T05:28:57.046Z,91.30
2017-06-17T05:31:24.597Z,91.70
2017-06-17T05:33:52.884Z,91.40
2017-06-17T05:36:20.420Z,91.40
2017-06-17T05:38:47.937Z,90.90
2017-06-17T05:41:15.693Z,90.80
2017-06-17T05:43:43.199Z,90.90
2017-06-17T05:46:10.755Z,90.50
2017-06-17T05:48:38.596Z,90.80
2017-06-17T05:51:06.116Z,90.60
2017-06-17T05:53:33.664Z,90.90
2017-06-17T05:56:02.195Z,90.40
2017-06-17T05:58:29.755Z,90.40
2017-06-17T06:00:57.271Z,90.20
2017-06-17T06:03:24.824Z,90.70
2017-06-17T06:05:53.109Z,88.60
2017-06-17T06:08:20.654Z,88.60
2017-06-17T06:10:48.939Z,90.10
2017-06-17T06:13:17.266Z,89.90
2017-06-17T06:15:44.779Z,89.90
2017-06-17T06:18:12.300Z,89.90
2017-06-17T06:20:40.066Z,89.40
2017-06-17T06:23:10.635Z,89.00
2017-06-17T06:25:39.271Z,89.10
2017-06-17T06:28:07.761Z,88.40
2017-06-17T06:30:35.407Z,88.90
2017-06-17T06:33:04.439Z,89.20
2017-06-17T06:35:32.131Z,87.20
2017-06-17T06:38:00.689Z,86.90
2017-06-17T06:40:28.206Z,87.40
2017-06-17T06:42:55.746Z,88.20
2017-06-17T06:45:23.263Z,87.50
2017-06-17T06:47:52.823Z,87.10
2017-06-17T06:50:20.457Z,87.00
2017-06-17T06:52:55.574Z,86.20
2017-06-17T06:55:23.216Z,86.10
2017-06-17T07:00:40.540Z,84.40
2017-06-17T07:03:08.153Z,84.40
2017-06-17T07:05:35.959Z,83.90
2017-06-17T07:08:03.718Z,83.10
2017-06-17T07:10:31.329Z,82.80
2017-06-17T07:12:59.618Z,84.40
2017-06-17T07:15:27.186Z,84.30
2017-06-17T07:17:54.704Z,84.10
2017-06-17T07:20:22.261Z,82.80
2017-06-17T07:22:50.028Z,83.00
2017-06-17T07:25:17.549Z,81.10
2017-06-17T07:27:45.129Z,80.10
2017-06-17T07:30:12.691Z,79.40
2017-06-17T07:32:40.235Z,80.80
2017-06-17T07:35:07.751Z,80.50
2017-06-17T07:37:36.223Z,80.40
2017-06-17T07:40:03.838Z,80.40
2017-06-17T07:42:31.411Z,81.20
2017-06-17T07:44:58.954Z,80.20
2017-06-17T07:47:28.960Z,80.00
2017-06-17T07:52:39.238Z,81.00
2017-06-17T07:55:07.590Z,80.00
2017-06-17T07:57:35.137Z,79.30
2017-06-17T08:00:03.463Z,78.70
2017-06-17T08:02:30.973Z,78.80
2017-06-17T08:04:58.507Z,78.80
2017-06-17T08:07:26.017Z,79.10
2017-06-17T08:09:53.553Z,79.30
2017-06-17T08:12:21.830Z,79.90
2017-06-17T08:14:50.154Z,78.90
2017-06-17T08:17:17.728Z,78.90
2017-06-17T08:19:45.259Z,78.60
2017-06-17T08:22:25.567Z,79.70
2017-06-17T08:24:59.097Z,78.60
2017-06-17T08:27:32.775Z,79.40
2017-06-17T08:30:08.311Z,79.30
2017-06-17T08:32:40.285Z,79.40
2017-06-17T08:35:16.448Z,77.90
2017-06-17T08:37:56.280Z,78.50
2017-06-17T08:40:23.983Z,78.50
2017-06-17T08:42:59.361Z,78.20
2017-06-17T08:45:26.894Z,78.30
2017-06-17T08:47:54.439Z,77.90
2017-06-17T08:50:22.822Z,78.50
2017-06-17T08:52:51.143Z,78.00
2017-06-17T08:55:18.672Z,77.90
2017-06-17T08:57:46.215Z,76.90
2017-06-17T09:00:14.883Z,76.70
2017-06-17T09:02:42.439Z,76.60
2017-06-17T09:05:10.345Z,76.80
2017-06-17T09:07:37.968Z,76.50
2017-06-17T09:10:06.280Z,77.30
2017-06-17T09:12:34.053Z,77.20
2017-06-17T09:15:01.605Z,76.00
2017-06-17T09:17:29.126Z,74.50
2017-06-17T09:19:56.670Z,74.80
2017-06-17T09:22:24.183Z,74.40
2017-06-17T09:24:51.755Z,74.60
2017-06-17T09:27:19.317Z,74.70
2017-06-17T09:29:46.854Z,73.30
2017-06-17T09:32:14.475Z,73.90
2017-06-17T09:34:44.751Z,74.70
2017-06-17T09:37:12.721Z,72.90
2017-06-17T09:39:41.426Z,73.10
2017-06-17T09:42:09.012Z,73.20
2017-06-17T09:44:36.557Z,72.00
2017-06-17T09:47:04.662Z,71.90
2017-06-17T09:49:32.211Z,72.40
2017-06-17T09:51:59.719Z,71.40
2017-06-17T09:54:27.253Z,72.00
2017-06-17T09:56:54.786Z,72.30
2017-06-17T09:59:23.359Z,72.80
2017-06-17T10:01:50.874Z,72.20
2017-06-17T10:04:18.735Z,72.00
2017-06-17T10:06:47.581Z,72.20
2017-06-17T10:09:15.271Z,70.50
2017-06-17T10:11:42.823Z,71.90
2017-06-17T10:14:10.418Z,69.80
2017-06-17T10:16:41.318Z,69.30
2017-06-17T10:19:10.079Z,70.40
2017-06-17T10:21:37.808Z,70.30
2017-06-17T10:24:11.789Z,69.60
2017-06-17T10:26:40.252Z,69.80
2017-06-17T10:29:15.352Z,70.70
2017-06-17T10:31:42.924Z,70.40
2017-06-17T10:34:11.514Z,69.20
2017-06-17T10:36:39.148Z,70.10
2017-06-17T10:39:07.472Z,70.80
2017-06-17T10:41:35.001Z,68.90
2017-06-17T10:44:02.539Z,68.10
2017-06-17T10:46:30.049Z,68.00
2017-06-17T10:48:57.818Z,68.70
2017-06-17T10:51:25.319Z,67.00
2017-06-17T10:53:52.939Z,68.30
2017-06-17T10:56:20.455Z,68.90
2017-06-17T10:58:47.990Z,67.20
2017-06-17T11:01:16.263Z,66.20
2017-06-17T11:03:44.575Z,67.30
2017-06-17T11:06:12.150Z,67.10
2017-06-17T11:08:39.699Z,69.30
2017-06-17T11:11:07.215Z,66.90
2017-06-17T11:13:34.754Z,67.80
2017-06-17T11:16:02.289Z,69.00
2017-06-17T11:18:29.796Z,67.00
2017-06-17T11:20:57.351Z,67.50
2017-06-17T11:23:24.903Z,68.20
2017-06-17T11:25:52.459Z,68.20
2017-06-17T11:28:20.004Z,66.10
2017-06-17T11:30:47.763Z,65.80
2017-06-17T11:33:15.626Z,66.00
2017-06-17T11:35:43.157Z,67.20
2017-06-17T11:38:10.713Z,66.40
2017-06-17T11:40:38.515Z,66.30
2017-06-17T11:43:06.054Z,67.40
2017-06-17T11:45:33.615Z,64.30
2017-06-17T11:48:01.156Z,65.50
2017-06-17T11:50:33.465Z,63.80
2017-06-17T11:53:00.974Z,64.70
2017-06-17T11:55:29.287Z,65.40
2017-06-17T11:57:56.856Z,65.40
2017-06-17T12:00:24.367Z,65.60
2017-06-17T12:02:52.931Z,64.80
2017-06-17T12:05:20.472Z,64.70
2017-06-17T12:07:48.041Z,64.00
2017-06-17T12:10:15.627Z,64.50
2017-06-17T12:12:43.183Z,63.00
2017-06-17T12:15:10.703Z,64.60
2017-06-17T12:17:38.237Z,65.60
2017-06-17T12:20:06.021Z,61.90
2017-06-17T12:22:33.572Z,61.00
2017-06-17T12:25:01.087Z,61.40
2017-06-17T12:27:28.647Z,63.20
2017-06-17T12:29:56.166Z,64.60
2017-06-17T12:32:23.727Z,61.10
2017-06-17T12:34:51.490Z,61.60
2017-06-17T12:37:19.001Z,59.00
2017-06-17T12:39:47.312Z,57.80
2017-06-17T12:42:14.838Z,57.70
2017-06-17T12:44:42.468Z,56.30
2017-06-17T12:47:09.994Z,57.20
2017-06-17T12:49:38.504Z,58.00
2017-06-17T12:52:06.021Z,56.80
2017-06-17T12:54:33.608Z,56.60
2017-06-17T12:57:03.653Z,55.50
2017-06-17T12:59:31.267Z,54.70
2017-06-17T13:01:58.835Z,55.80
2017-06-17T13:04:26.355Z,54.50
2017-06-17T13:06:54.675Z,55.60
2017-06-17T13:09:22.951Z,55.60
2017-06-17T13:11:50.506Z,53.70
2017-06-17T13:14:18.023Z,54.80
2017-06-17T13:16:45.567Z,55.50
2017-06-17T13:19:13.189Z,53.50
2017-06-17T13:21:40.735Z,53.80
2017-06-17T13:24:08.636Z,53.90
2017-06-17T13:26:36.195Z,54.40
2017-06-17T13:29:03.753Z,52.30
2017-06-17T13:31:31.258Z,53.60
2017-06-17T13:34:01.010Z,54.10
2017-06-17T13:36:28.560Z,54.10
2017-06-17T13:38:56.067Z,54.50
2017-06-17T13:41:23.815Z,55.20
2017-06-17T13:43:51.341Z,54.70
2017-06-17T13:46:19.203Z,55.40
2017-06-17T13:48:46.735Z,54.60
2017-06-17T13:51:14.299Z,53.00
2017-06-17T13:53:42.834Z,52.80
2017-06-17T13:56:10.388Z,52.80
2017-06-17T13:58:37.948Z,53.80
2017-06-17T14:01:05.499Z,52.50
2017-06-17T14:03:33.236Z,54.10
2017-06-17T14:06:00.799Z,53.70
2017-06-17T14:08:28.309Z,54.90
2017-06-17T14:10:55.841Z,55.50
2017-06-17T14:13:23.352Z,53.40
2017-06-17T14:15:51.718Z,53.50
2017-06-17T14:18:19.267Z,53.40
2017-06-17T14:21:01.700Z,53.70
2017-06-17T14:23:29.307Z,56.90
2017-06-17T14:25:57.095Z,55.30
2017-06-17T14:28:24.631Z,53.40
2017-06-17T14:30:52.520Z,54.10
2017-06-17T14:33:20.052Z,53.90
2017-06-17T14:35:47.616Z,53.80
2017-06-17T14:38:15.134Z,53.30
2017-06-17T14:40:42.638Z,54.20
2017-06-17T14:43:10.521Z,52.30
2017-06-17T14:45:38.052Z,52.20
2017-06-17T14:48:05.597Z,53.70
2017-06-17T14:50:33.102Z,54.40
2017-06-17T14:53:00.659Z,54.10
2017-06-17T14:55:28.184Z,50.30
2017-06-17T14:57:55.726Z,51.30
2017-06-17T15:00:23.246Z,51.50
2017-06-17T15:02:50.792Z,51.70
2017-06-17T15:05:18.345Z,51.50
2017-06-17T15:07:45.895Z,51.10
2017-06-17T15:10:13.419Z,51.90
2017-06-17T15:12:40.970Z,52.90
2017-06-17T15:15:09.288Z,51.20
2017-06-17T15:17:36.812Z,51.10
2017-06-17T15:20:04.367Z,52.20
2017-06-17T15:22:32.705Z,50.30
2017-06-17T15:25:00.256Z,50.30
2017-06-17T15:27:27.764Z,49.30
2017-06-17T15:29:56.088Z,49.50
2017-06-17T15:32:23.624Z,49.40
2017-06-17T15:34:51.212Z,52.60
2017-06-17T15:37:18.803Z,49.00
2017-06-17T15:39:46.313Z,49.10
2017-06-17T15:42:13.828Z,49.30
2017-06-17T15:44:41.542Z,48.10
2017-06-17T15:47:25.290Z,47.80
2017-06-17T15:49:53.063Z,47.50
2017-06-17T15:52:23.117Z,49.20
2017-06-17T15:54:52.105Z,50.80
2017-06-17T15:57:20.489Z,50.70
2017-06-17T15:59:48.154Z,50.20
2017-06-17T16:02:19.799Z,50.40
2017-06-17T16:04:47.481Z,50.40
2017-06-17T16:07:16.122Z,50.40
2017-06-17T16:09:43.810Z,50.30
2017-06-17T16:12:11.363Z,51.40
2017-06-17T16:14:41.237Z,48.80
2017-06-17T16:17:11.236Z,47.80
2017-06-17T16:19:38.791Z,47.10
2017-06-17T16:22:06.336Z,48.10
2017-06-17T16:24:34.012Z,49.30
2017-06-17T16:27:01.532Z,48.10
2017-06-17T16:29:29.128Z,48.70
2017-06-17T16:31:57.271Z,49.80
2017-06-17T16:34:28.009Z,47.00
2017-06-17T16:36:56.962Z,46.00
2017-06-17T16:39:24.544Z,46.80
2017-06-17T16:41:52.057Z,47.40
2017-06-17T16:44:19.607Z,47.70
2017-06-17T16:46:50.915Z,42.50
2017-06-17T16:49:20.799Z,42.40
2017-06-17T16:51:48.857Z,38.30
2017-06-17T16:54:16.624Z,38.10
2017-06-17T16:56:44.222Z,36.90
2017-06-17T16:59:11.733Z,37.00
2017-06-17T17:01:40.448Z,40.20
2017-06-17T17:04:08.672Z,40.20
2017-06-17T17:06:36.248Z,42.40
2017-06-17T17:09:04.886Z,45.60
2017-06-17T17:11:32.440Z,45.60
2017-06-17T17:14:02.343Z,47.80
2017-06-17T17:16:30.117Z,47.30
2017-06-17T17:18:58.987Z,49.30
2017-06-17T17:21:28.011Z,50.60
2017-06-17T17:23:55.656Z,50.60
2017-06-17T17:26:23.178Z,51.00
2017-06-17T17:28:51.498Z,51.90
2017-06-17T17:31:19.015Z,51.70
2017-06-17T17:33:47.332Z,51.20
2017-06-17T17:36:14.894Z,51.10
2017-06-17T17:38:42.455Z,51.80
2017-06-17T17:41:09.966Z,51.70
2017-06-17T17:43:39.231Z,52.40
2017-06-17T17:46:06.771Z,51.90
2017-06-17T17:48:34.384Z,51.70
2017-06-17T17:51:02.723Z,47.90
2017-06-17T17:53:30.292Z,47.90
2017-06-17T17:55:58.100Z,45.10
2017-06-17T17:58:25.624Z,41.70
2017-06-17T18:00:53.241Z,41.60
2017-06-17T18:03:20.786Z,44.60
2017-06-17T18:05:48.759Z,47.20
2017-06-17T18:08:17.158Z,46.80
2017-06-17T18:10:44.725Z,46.70
2017-06-17T18:13:12.274Z,44.50
2017-06-17T18:15:39.969Z,47.20
2017-06-17T18:18:07.515Z,49.10
2017-06-17T18:20:35.028Z,50.00
2017-06-17T18:23:03.500Z,52.90
2017-06-17T18:25:31.023Z,52.80
2017-06-17T18:27:58.545Z,52.60
2017-06-17T18:30:28.461Z,52.00
2017-06-17T18:32:57.391Z,53.60
2017-06-17T18:35:25.425Z,54.30
2017-06-17T18:37:53.056Z,54.50
2017-06-17T18:40:21.532Z,53.00
2017-06-17T18:42:50.164Z,52.50
2017-06-17T18:45:18.811Z,53.00
2017-06-17T18:47:48.750Z,52.70
2017-06-17T18:50:16.622Z,52.70
2017-06-17T18:52:44.373Z,53.80
2017-06-17T18:55:12.916Z,54.90
2017-06-17T18:57:40.455Z,55.50
2017-06-17T19:00:08.531Z,56.80
2017-06-17T19:02:36.207Z,57.00
2017-06-17T19:05:03.716Z,57.60
2017-06-17T19:07:33.110Z,57.00
2017-06-17T19:10:00.644Z,56.50
2017-06-17T19:12:28.331Z,55.40
2017-06-17T19:14:55.918Z,56.00
2017-06-17T19:17:23.426Z,57.10
2017-06-17T19:19:50.979Z,58.10
2017-06-17T19:22:18.500Z,59.90
2017-06-17T19:24:46.010Z,61.50
2017-06-17T19:27:14.336Z,64.70
2017-06-17T19:29:42.124Z,63.80
2017-06-17T19:32:09.667Z,64.10
2017-06-17T19:34:37.183Z,64.90
2017-06-17T19:37:05.506Z,64.90
2017-06-17T19:39:33.023Z,64.90
2017-06-17T19:42:00.583Z,65.30
2017-06-17T19:44:28.463Z,65.60
2017-06-17T19:46:56.006Z,65.20
2017-06-17T19:49:24.303Z,66.40
2017-06-17T19:51:52.228Z,66.40
2017-06-17T19:54:19.759Z,66.90
2017-06-17T19:56:47.344Z,67.00
2017-06-17T19:59:14.852Z,67.50
2017-06-17T20:01:42.365Z,68.20
2017-06-17T20:04:09.967Z,68.90
2017-06-17T20:06:39.328Z,69.60
2017-06-17T20:09:07.003Z,69.60
2017-06-17T20:11:34.767Z,69.70
2017-06-17T20:14:02.395Z,69.70
2017-06-17T20:16:31.118Z,69.90
2017-06-17T20:18:59.510Z,70.20
2017-06-17T20:21:45.746Z,70.10
2017-06-17T20:24:19.260Z,69.10
2017-06-17T20:26:46.817Z,70.60
2017-06-17T20:29:14.427Z,70.50
2017-06-17T20:31:41.970Z,70.40
2017-06-17T20:34:09.652Z,71.40
2017-06-17T20:36:38.007Z,69.10
2017-06-17T20:39:05.532Z,69.00
2017-06-17T20:41:33.058Z,71.00
2017-06-17T20:44:01.405Z,72.30
2017-06-17T20:46:28.995Z,72.30
2017-06-17T20:48:57.312Z,73.20
2017-06-17T20:51:24.818Z,73.10
2017-06-17T20:53:52.534Z,74.20
2017-06-17T20:56:20.052Z,74.90
2017-06-17T20:58:47.602Z,75.50
2017-06-17T21:01:15.183Z,74.70
2017-06-17T21:03:42.964Z,75.20
2017-06-17T21:06:10.486Z,75.50
2017-06-17T21:08:38.035Z,76.80
2017-06-17T21:11:05.795Z,76.50
2017-06-17T21:13:33.474Z,75.60
2017-06-17T21:16:01.843Z,77.00
2017-06-17T21:18:31.069Z,76.50
2017-06-17T21:20:59.883Z,75.60
2017-06-17T21:23:27.504Z,75.60
2017-06-17T21:25:56.204Z,76.70
2017-06-17T21:28:24.564Z,76.80
2017-06-17T21:30:52.191Z,76.80
2017-06-17T21:33:19.751Z,77.20
2017-06-17T21:35:47.673Z,77.00
2017-06-17T21:38:15.387Z,77.20
2017-06-17T21:40:43.119Z,77.30
2017-06-17T21:43:11.493Z,77.20
2017-06-17T21:45:39.252Z,77.10
2017-06-17T21:48:08.083Z,77.00
2017-06-17T21:50:35.715Z,77.00
2017-06-17T21:53:04.165Z,76.40
2017-06-17T21:55:32.060Z,78.00
2017-06-17T21:57:59.606Z,78.40
2017-06-17T22:00:27.191Z,80.40
2017-06-17T22:02:54.724Z,80.50
2017-06-17T22:05:22.255Z,81.80
2017-06-17T22:07:49.806Z,82.00
2017-06-17T22:10:17.383Z,81.40
2017-06-17T22:12:45.129Z,81.30
2017-06-17T22:15:12.720Z,81.40
2017-06-17T22:17:40.744Z,81.20
2017-06-17T22:20:08.284Z,81.40
2017-06-17T22:22:35.920Z,81.20
2017-06-17T22:25:03.508Z,81.10
2017-06-17T22:27:31.060Z,81.30
2017-06-17T22:29:58.800Z,81.70
2017-06-17T22:32:27.326Z,81.20
2017-06-17T22:34:54.932Z,81.20
2017-06-17T22:37:22.600Z,81.20
2017-06-17T22:39:50.880Z,82.20
2017-06-17T22:42:18.472Z,81.30
2017-06-17T22:44:46.179Z,81.40
2017-06-17T22:47:15.610Z,81.60
2017-06-17T22:49:43.944Z,81.90
2017-06-17T22:52:12.858Z,82.00
2017-06-17T22:54:40.659Z,80.60
2017-06-17T22:57:09.237Z,82.90
2017-06-17T22:59:37.195Z,82.90
2017-06-17T23:02:04.724Z,83.00
2017-06-17T23:04:32.287Z,85.40
2017-06-17T23:07:00.151Z,86.90
2017-06-17T23:09:27.684Z,86.50
2017-06-17T23:11:55.459Z,84.90
2017-06-17T23:14:23.027Z,85.70
2017-06-17T23:16:50.572Z,85.90
2017-06-17T23:19:18.102Z,87.30
2017-06-17T23:21:45.660Z,86.00
2017-06-17T23:24:13.250Z,87.00
2017-06-17T23:26:40.803Z,86.80
2017-06-17T23:29:08.351Z,85.60
2017-06-17T23:31:35.911Z,85.50
2017-06-17T23:34:03.471Z,85.70
2017-06-17T23:36:31.043Z,86.60
2017-06-17T23:38:58.603Z,86.40
2017-06-17T23:41:26.133Z,86.80
2017-06-17T23:43:53.777Z,86.90
2017-06-17T23:46:21.299Z,87.20
2017-06-17T23:48:48.880Z,87.60
2017-06-17T23:51:16.446Z,87.60
2017-06-17T23:53:43.994Z,87.40
2017-06-17T23:56:11.623Z,87.80
2017-06-17T23:58:39.251Z,87.90
